createdAt,value
2018-08-09T00:03:00.290Z,100933.87
2018-08-09T00:07:52.819Z,100929.92
2018-08-09T00:12:45.405Z,100941.34
2018-08-09T00:17:37.958Z,100937.28
2018-08-09T00:22:30.495Z,100931.91
2018-08-09T00:27:23.087Z,100940.64
2018-08-09T00:32:15.724Z,100953.30
2018-08-09T00:37:08.299Z,100954.19
2018-08-09T00:42:00.983Z,100957.18
2018-08-09T00:46:53.546Z,100963.38
2018-08-09T00:51:46.130Z,100970.05
2018-08-09T00:56:38.694Z,100966.80
2018-08-09T01:01:31.201Z,100981.45
2018-08-09T01:06:23.771Z,100990.11
2018-08-09T01:11:16.265Z,100989.36
2018-08-09T01:16:08.836Z,100993.00
2018-08-09T01:21:01.427Z,100997.65
2018-08-09T01:25:53.999Z,101007.03
2018-08-09T01:30:46.497Z,101010.34
2018-08-09T01:35:39.076Z,101011.27
2018-08-09T01:40:31.642Z,101014.37
2018-08-09T01:45:24.244Z,101022.12
2018-08-09T01:50:16.799Z,101034.48
2018-08-09T01:55:09.422Z,101034.14
2018-08-09T02:00:01.963Z,101030.23
2018-08-09T02:04:54.591Z,101028.73
2018-08-09T02:09:47.038Z,101047.82
2018-08-09T02:14:39.564Z,101050.22
2018-08-09T02:19:32.084Z,101060.93
2018-08-09T02:24:24.597Z,101057.23
2018-08-09T02:29:17.229Z,101053.33
2018-08-09T02:34:09.799Z,101060.97
2018-08-09T02:39:02.474Z,101068.17
2018-08-09T02:43:55.024Z,101069.06
2018-08-09T02:48:47.574Z,101067.03
2018-08-09T02:53:40.099Z,101085.48
2018-08-09T02:58:32.610Z,101091.86
2018-08-09T03:03:25.203Z,101081.13
2018-08-09T03:08:17.775Z,101083.66
2018-08-09T03:13:10.268Z,101083.20
2018-08-09T03:18:03.063Z,101079.45
2018-08-09T03:22:55.587Z,101087.11
2018-08-09T03:27:48.207Z,101085.56
2018-08-09T03:32:40.741Z,101096.55
2018-08-09T03:37:33.253Z,101102.02
2018-08-09T03:42:25.830Z,101115.00
2018-08-09T03:47:18.416Z,101121.42
2018-08-09T03:52:11.009Z,101114.92
2018-08-09T03:57:03.516Z,101118.56
2018-08-09T04:01:56.127Z,101109.66
2018-08-09T04:06:48.678Z,101113.55
2018-08-09T04:11:41.383Z,101109.16
2018-08-09T04:16:34.213Z,101101.02
2018-08-09T04:21:26.811Z,101103.93
2018-08-09T04:26:19.338Z,101111.22
2018-08-09T04:31:11.901Z,101108.39
2018-08-09T04:36:04.675Z,101109.59
2018-08-09T04:40:57.290Z,101115.66
2018-08-09T04:45:49.900Z,101120.69
2018-08-09T04:50:42.544Z,101115.42
2018-08-09T04:55:35.388Z,101120.61
2018-08-09T05:00:28.150Z,101114.84
2018-08-09T05:05:20.870Z,101129.94
2018-08-09T05:10:13.586Z,101134.16
2018-08-09T05:15:06.141Z,101128.33
2018-08-09T05:19:58.786Z,101130.67
2018-08-09T05:24:51.313Z,101129.96
2018-08-09T05:29:43.955Z,101137.67
2018-08-09T05:34:36.549Z,101132.90
2018-08-09T05:39:29.159Z,101131.52
2018-08-09T05:44:21.806Z,101131.02
2018-08-09T05:49:14.526Z,101127.03
2018-08-09T05:54:07.150Z,101126.32
2018-08-09T05:58:59.968Z,101125.19
2018-08-09T06:03:52.519Z,101128.20
2018-08-09T06:08:45.139Z,101129.90
2018-08-09T06:13:37.877Z,101133.97
2018-08-09T06:18:30.842Z,101132.86
2018-08-09T06:23:23.502Z,101139.34
2018-08-09T06:28:16.093Z,101142.52
2018-08-09T06:33:08.742Z,101138.45
2018-08-09T06:38:01.363Z,101143.16
2018-08-09T06:42:53.927Z,101144.39
2018-08-09T06:47:46.595Z,101151.60
2018-08-09T06:52:39.251Z,101151.45
2018-08-09T06:57:32.022Z,101163.70
2018-08-09T07:02:24.619Z,101162.66
2018-08-09T07:07:17.178Z,101159.13
2018-08-09T07:12:09.717Z,101170.27
2018-08-09T07:17:02.482Z,101159.14
2018-08-09T07:21:55.146Z,101162.06
2018-08-09T07:26:47.753Z,101160.31
2018-08-09T07:31:40.290Z,101156.55
2018-08-09T07:36:33.068Z,101153.03
2018-08-09T07:41:25.673Z,101159.22
2018-08-09T07:46:18.248Z,101156.02
2018-08-09T07:51:10.836Z,101152.06
2018-08-09T07:56:03.441Z,101150.41
2018-08-09T08:00:56.048Z,101143.88
2018-08-09T08:05:48.716Z,101145.11
2018-08-09T08:10:41.253Z,101145.60
2018-08-09T08:15:33.959Z,101146.75
2018-08-09T08:20:26.635Z,101142.78
2018-08-09T08:25:19.202Z,101143.29
2018-08-09T08:30:13.031Z,101144.06
2018-08-09T08:35:06.322Z,101137.84
2018-08-09T08:39:59.075Z,101144.51
2018-08-09T08:44:51.731Z,101140.44
2018-08-09T08:49:44.229Z,101140.57
2018-08-09T08:54:36.904Z,101131.57
2018-08-09T08:59:29.528Z,101132.66
2018-08-09T09:04:22.125Z,101124.71
2018-08-09T09:09:14.784Z,101123.31
2018-08-09T09:14:07.422Z,101104.57
2018-08-09T09:19:00.232Z,101099.86
2018-08-09T09:23:52.815Z,101106.18
2018-08-09T09:28:45.402Z,101093.73
2018-08-09T09:33:37.926Z,101096.56
2018-08-09T09:38:30.513Z,101088.70
2018-08-09T09:43:23.294Z,101085.41
2018-08-09T09:48:15.854Z,101080.85
2018-08-09T09:53:08.509Z,101073.87
2018-08-09T09:58:01.283Z,101070.21
2018-08-09T10:02:53.891Z,101060.79
2018-08-09T10:07:46.505Z,101054.92
2018-08-09T10:12:39.599Z,101049.94
2018-08-09T10:17:32.576Z,101041.56
2018-08-09T10:22:25.230Z,101031.06
2018-08-09T10:27:17.855Z,101023.48
2018-08-09T10:32:10.436Z,101022.59
2018-08-09T10:37:03.081Z,101016.30
2018-08-09T10:41:55.625Z,101009.61
2018-08-09T10:46:48.294Z,101007.07
2018-08-09T10:51:41.034Z,100992.78
2018-08-09T10:56:33.648Z,100984.17
2018-08-09T11:01:26.252Z,100979.73
2018-08-09T11:06:18.818Z,100971.78
2018-08-09T11:11:13.446Z,100972.23
2018-08-09T11:16:06.001Z,100958.31
2018-08-09T11:20:58.623Z,100955.20
2018-08-09T11:25:51.201Z,100946.80
2018-08-09T11:30:43.751Z,100936.37
2018-08-09T11:35:36.352Z,100927.02
2018-08-09T11:40:28.892Z,100919.09
2018-08-09T11:45:21.694Z,100910.59
2018-08-09T11:50:14.091Z,100906.33
2018-08-09T11:55:06.689Z,100898.16
2018-08-09T11:59:59.356Z,100897.87
2018-08-09T12:04:51.967Z,100893.92
2018-08-09T12:09:44.517Z,100880.00
2018-08-09T12:14:37.198Z,100879.22
2018-08-09T12:19:29.847Z,100873.11
2018-08-09T12:24:22.359Z,100859.56
2018-08-09T12:29:14.946Z,100855.42
2018-08-09T12:34:07.634Z,100852.70
2018-08-09T12:39:00.384Z,100844.52
2018-08-09T12:43:53.135Z,100839.92
2018-08-09T12:48:45.723Z,100841.09
2018-08-09T12:53:38.316Z,100820.52
2018-08-09T12:58:30.876Z,100819.71
2018-08-09T13:03:23.426Z,100816.91
2018-08-09T13:08:16.293Z,100798.90
2018-08-09T13:13:08.948Z,100784.91
2018-08-09T13:18:01.526Z,100781.48
2018-08-09T13:22:54.094Z,100770.91
2018-08-09T13:27:47.134Z,100777.48
2018-08-09T13:32:40.386Z,100754.66
2018-08-09T13:37:32.929Z,100742.66
2018-08-09T13:42:25.498Z,100735.23
2018-08-09T13:47:18.042Z,100739.86
2018-08-09T13:52:10.571Z,100719.00
2018-08-09T13:57:03.185Z,100721.41
2018-08-09T14:01:55.799Z,100705.36
2018-08-09T14:06:48.324Z,100697.74
2018-08-09T14:11:41.559Z,100687.53
2018-08-09T14:16:34.207Z,100687.13
2018-08-09T14:21:26.795Z,100672.09
2018-08-09T14:26:19.381Z,100671.30
2018-08-09T14:31:11.946Z,100648.47
2018-08-09T14:36:04.493Z,100631.84
2018-08-09T14:40:57.132Z,100636.25
2018-08-09T14:45:49.753Z,100644.05
2018-08-09T14:50:42.719Z,100636.45
2018-08-09T14:55:35.299Z,100618.81
2018-08-09T15:00:27.927Z,100606.80
2018-08-09T15:05:20.520Z,100613.56
2018-08-09T15:10:14.399Z,100610.98
2018-08-09T15:15:09.454Z,100604.18
2018-08-09T15:20:03.031Z,100607.39
2018-08-09T15:24:55.601Z,100608.81
2018-08-09T15:29:48.162Z,100586.37
2018-08-09T15:34:40.767Z,100576.56
2018-08-09T15:39:33.330Z,100569.20
2018-08-09T15:44:26.255Z,100571.25
2018-08-09T15:49:18.887Z,100559.23
2018-08-09T15:54:11.437Z,100562.09
2018-08-09T15:59:04.042Z,100563.85
2018-08-09T16:03:56.629Z,100545.06
2018-08-09T16:08:49.179Z,100549.84
2018-08-09T16:13:41.728Z,100531.45
2018-08-09T16:18:34.473Z,100531.47
2018-08-09T16:23:27.087Z,100524.27
2018-08-09T16:28:20.409Z,100517.27
2018-08-09T16:33:13.018Z,100514.67
2018-08-09T16:38:05.600Z,100490.69
2018-08-09T16:42:58.183Z,100494.69
2018-08-09T16:47:52.010Z,100485.69
2018-08-09T16:52:45.550Z,100482.92
2018-08-09T16:57:38.336Z,100471.53
2018-08-09T17:02:31.185Z,100461.36
2018-08-09T17:07:23.731Z,100457.77
2018-08-09T17:12:16.362Z,100448.97
2018-08-09T17:17:08.932Z,100444.00
2018-08-09T17:22:01.442Z,100427.21
2018-08-09T17:26:53.984Z,100421.61
2018-08-09T17:31:46.558Z,100416.05
2018-08-09T17:36:39.250Z,100410.08
2018-08-09T17:41:31.778Z,100399.48
2018-08-09T17:46:24.364Z,100389.13
2018-08-09T17:51:17.098Z,100385.33
2018-08-09T17:56:09.680Z,100381.55
2018-08-09T18:01:02.177Z,100379.75
2018-08-09T18:05:54.826Z,100375.97
2018-08-09T18:10:47.475Z,100374.39
2018-08-09T18:15:40.068Z,100366.63
2018-08-09T18:20:34.201Z,100371.19
2018-08-09T18:25:26.829Z,100360.80
2018-08-09T18:30:19.940Z,100362.50
2018-08-09T18:35:14.098Z,100357.89
2018-08-09T18:40:11.608Z,100362.87
2018-08-09T18:45:05.150Z,100382.33
2018-08-09T18:49:57.764Z,100376.91
2018-08-09T18:54:50.287Z,100381.84
2018-08-09T18:59:42.742Z,100392.39
2018-08-09T19:04:35.166Z,100381.77
2018-08-09T19:09:27.710Z,100380.94
2018-08-09T19:14:20.295Z,100374.34
2018-08-09T19:19:12.861Z,100372.15
2018-08-09T19:24:05.439Z,100370.94
2018-08-09T19:28:57.989Z,100366.48
2018-08-09T19:33:50.708Z,100363.17
2018-08-09T19:38:43.510Z,100377.80
2018-08-09T19:43:36.107Z,100404.92
2018-08-09T19:48:28.751Z,100524.00
2018-08-09T19:53:21.244Z,100538.69
2018-08-09T19:58:13.833Z,100547.36
2018-08-09T20:03:06.603Z,100611.18
2018-08-09T20:07:59.551Z,100672.06
2018-08-09T20:12:52.115Z,100679.95
2018-08-09T20:17:44.857Z,100668.40
2018-08-09T20:22:37.489Z,100648.87
2018-08-09T20:27:30.051Z,100627.53
2018-08-09T20:32:22.670Z,100626.75
2018-08-09T20:37:15.350Z,100627.40
2018-08-09T20:42:07.946Z,100626.41
2018-08-09T20:47:00.552Z,100605.94
2018-08-09T20:51:53.131Z,100624.58
2018-08-09T20:56:45.703Z,100623.97
2018-08-09T21:01:38.379Z,100660.13
2018-08-09T21:06:31.000Z,100666.75
2018-08-09T21:11:23.614Z,100641.91
2018-08-09T21:16:16.122Z,100613.73
2018-08-09T21:21:08.682Z,100590.69
2018-08-09T21:26:01.263Z,100569.77
2018-08-09T21:30:53.878Z,100593.77
2018-08-09T21:35:46.405Z,100590.94
2018-08-09T21:40:39.000Z,100586.03
2018-08-09T21:45:31.493Z,100581.47
2018-08-09T21:50:24.214Z,100601.05
2018-08-09T21:55:16.789Z,100622.63
2018-08-09T22:00:40.053Z,100636.75
2018-08-09T22:05:38.718Z,100643.24
2018-08-09T22:10:37.178Z,100646.06
2018-08-09T22:15:35.604Z,100660.95
2018-08-09T22:20:34.065Z,100670.84
2018-08-09T22:25:26.622Z,100675.34
2018-08-09T22:30:19.545Z,100690.25
2018-08-09T22:35:12.858Z,100694.81
2018-08-09T22:40:05.452Z,100699.50
2018-08-09T22:44:58.019Z,100705.21
2018-08-09T22:49:50.558Z,100726.59
2018-08-09T22:54:43.130Z,100737.86
2018-08-09T22:59:35.681Z,100731.93
2018-08-09T23:04:28.257Z,100747.51
2018-08-09T23:09:20.838Z,100753.05
2018-08-09T23:14:13.358Z,100764.71
2018-08-09T23:19:06.026Z,100765.46
2018-08-09T23:23:58.806Z,100753.14
2018-08-09T23:28:51.351Z,100760.34
2018-08-09T23:33:43.869Z,100762.20
2018-08-09T23:38:36.440Z,100767.12
2018-08-09T23:43:29.000Z,100778.65
2018-08-09T23:48:21.587Z,100779.80
2018-08-09T23:53:14.128Z,100776.14
2018-08-09T23:58:06.764Z,100778.28
